西西论坛

 找回密码
 立即注册
搜索
收藏本版 (1) |订阅

高清立体3D 今日: 0|主题: 1050|排名: 17 

作者 回复/查看 最后发表
[左右格式] [BT下载]犯罪活动[3D左右]Criminal.Activities.2015.3D.1080p.BluRay.x264-VALUE 6.56GB attachment admin 2016-8-11 0731 admin 2016-8-11 09:01
[左右格式] [BT下载]女孩们的周末[3D左右]All.Girls.Weekend.2016.3D.1080p.BluRay.x264-VALUE 6.56GB attachment admin 2016-8-4 01081 admin 2016-8-4 22:42
[左右格式] [BT下载]女孩们的周末[3D左右]All.Girls.Weekend.2016.3D.720p.BluRay.x264-VALUE 4.37GB attachment admin 2016-8-4 0709 admin 2016-8-4 22:40
[左右格式] [BT下载]愤怒的小鸟[3D左右]Angry.Birds.2016.3D.1080p.BluRay.x264-SPRiNTER 5.46GB attachment admin 2016-8-4 0852 admin 2016-8-4 22:40
[上下格式] [BT下载]猎神:冬日之战[3D上下]2016.1080p.3D.BluRay.Half-OU.x264.DTS-HD.MA.7.1-RARBG 26.9GB attachment admin 2016-8-4 0663 admin 2016-8-4 22:37
[左右格式] [BT下载]猎神:冬日之战[3D左右]2016.1080p.3D.BluRay.Half-SBS.x264.DTS-HD.MA.7.1-RARBG 26GB attachment admin 2016-8-4 0721 admin 2016-8-4 22:36
[左右格式] [BT下载]愤怒的小鸟[3D左右 国粤英]2016.1080p.Half-SBS.3D.BluRay.x264.DTS-WiKi 8.76GB attachment admin 2016-8-4 0677 admin 2016-8-4 22:34
[左右格式] [BT下载]愤怒的小鸟[3D左右 国粤英]2016.1080p.Half-SBS.3D.BluRay.x264.DTS-WiKi 8.76GB attachment admin 2016-8-3 0580 admin 2016-8-3 08:48
[上下格式] [BT下载]愤怒的小鸟[3D上下]2016.1080p.3D.BluRay.Half-OU.x264.DTS-HD.MA.7.1-RARBG 20GB attachment admin 2016-8-3 0465 admin 2016-8-3 08:47
[左右格式] [BT下载]愤怒的小鸟[3D左右]2016.1080p.3D.BluRay.Half-SBS.x264.DTS-HD.MA.7.1-RARBG 19.9GB attachment admin 2016-8-3 0521 admin 2016-8-3 08:46
[左右格式] [BT下载]功夫熊猫3[3D左右 国粤英台]2016.1080p.Half-SBS.3D.BluRay.x264.DTS-WiKi 8.5GB attachment admin 2016-7-12 01382 admin 2016-7-12 10:19
[上下格式] [BT下载]蝙蝠侠大战超人:正义黎明[3D上下]2016.1080p.3D.BluRay.Half-OU.x264.TrueHD.7.1.Atmos-RARBG attachment admin 2016-7-9 01071 admin 2016-7-9 08:24
[上下格式] [BT下载]蝙蝠侠大战超人:正义黎明[3D上下]2016.1080p.3D.BluRay.Half-OU.x264.DTS-HD.MA.7.1-RARBG 22 attachment admin 2016-7-9 0752 admin 2016-7-9 08:24
[左右格式] [BT下载]蝙蝠侠大战超人:正义黎明[3D左右]201.1080p.3D.BluRay.Half-SBS.x264.TrueHD.7.1.Atmos-RARBG attachment admin 2016-7-9 0958 admin 2016-7-9 08:23
[左右格式] [BT下载]蝙蝠侠大战超人:正义黎明[3D左右]2016.1080p.3D.BluRay.Half-SBS.x264.DTS-HD.MA.7.1-RARBG 2 attachment admin 2016-7-9 0866 admin 2016-7-9 08:22
[其他格式] [BT下载]美人鱼[国英双语]The.Mermaid.2016.LIMITED.720p.BluRay.x264-USURY 5.47GB attachment admin 2016-7-9 01295 admin 2016-7-9 08:21
[其他格式] [BD-3D] [BT下载]美人鱼[国英双语]The.Mermaid.2016.LIMITED.1080p.BluRay.x264-USURY 7.71GB attachment admin 2016-7-9 01063 admin 2016-7-9 08:20
[左右格式] [BT下载]蝙蝠侠大战超人:正义黎明[3D左右]2016.3D.1080p.BluRay.x264-SPRiNTER 9.8GB attachment admin 2016-7-8 0825 admin 2016-7-8 09:25
[左右格式] [BT下载]功夫熊猫3[3D左右]2016.1080p.3D.BluRay.Half-SBS.x264.DTS-HD.MA.7.1-RARBG ... attachment 电影首发 2016-7-1 01155 电影首发 2016-7-1 19:48
[上下格式] [BT下载]功夫熊猫3[3D上下]2016.1080p.3D.BluRay.Half-OU.x264.DTS-HD.MA.7.1-RARBG 1 ... attachment 电影首发 2016-7-1 0758 电影首发 2016-7-1 19:48
[左右格式] [BT下载]功夫熊猫3[3D左右]Kung.Fu.Panda.3.2016.3D.1080p.BluRay.x264-SPRiNTER 4.37 ... attachment 电影首发 2016-6-29 0846 电影首发 2016-6-29 10:55
[左右格式] [BT下载]Milwood.2013.3D.1080p.BluRay.x264-VALUE 6.57GB attachment 电影首发 2016-6-29 0833 电影首发 2016-6-29 10:55
[左右格式] [BT下载]Milwood.2013.3D.720p.BluRay.x264-VALUE 4.37GB attachment 电影首发 2016-6-29 0668 电影首发 2016-6-29 10:55
[左右格式] [BT下载]大白鲨3[3D左右]Jaws.3D.1983.1080p.BluRay.x264-PSYCHD 9.83GB attach_img 电影首发 2016-6-22 01625 电影首发 2016-6-22 10:58
[BT磁链] [疯狂动物城].Zootopia.2016.1080p.Half-SBS.3D.BluRay.x264.DTS-WiKi[9.85G ... attach_img 电影首发 2016-6-15 01439 电影首发 2016-6-15 09:34
[左右格式] [BT下载]太空之旅/宇宙之旅[3D左右]Journey.to.Space.2015.3D.1080p.BluRay.x264-SPRi ... attachment 电影首发 2016-6-12 01323 电影首发 2016-6-12 09:08
[左右格式] [BT下载]神战:权力之眼[3D左右]Gods.of.Egypt.2016.3D.1080p.BluRay.x264-PSYCHD 10.9 ... attachment 电影首发 2016-6-10 0973 电影首发 2016-6-10 15:54
[左右格式] [BT下载]疯狂动物城[3D左右]Zootopia.2016.3D.1080p.BluRay.x264-PSYCHD 8.74GB ... ... attachment 电影首发 2016-6-10 01159 电影首发 2016-6-10 15:54
[左右格式] 123 - [阅读权限 200] admin 2016-6-1 06 admin 2016-6-1 10:21
[左右格式] [BT下载]美国恐怖/恐怖行动 An.American.Terror.3D.2014.1080p.BluRay.x264-UNVEiL 6. ... attachment 电影首发 2016-6-1 01056 电影首发 2016-6-1 09:09
[左右格式] [BT下载][美人鱼][左右格式].2016.3D.BluRay.1080p.HSBS.x264.TrueHD5.1.2Audios-CMCT ... attach_img 电影首发 2016-5-31 01258 电影首发 2016-5-31 08:55
[上下格式] [BT下载][美人鱼][上下格式].2016.3D.BluRay.1080p.HOU.x264.TrueHD5.1.2Audios-CMCT[ ... attach_img 电影首发 2016-5-31 0731 电影首发 2016-5-31 08:55
[左右格式] [BT下载]恶灵狂呼[3D左右]Poltergeist.Activity.2015.3D.1080p.BluRay.x264-VALUE 6.6 ... attachment 电影首发 2016-5-30 0818 电影首发 2016-5-30 09:13
[上下格式] [BT下载]怒海救援[3D上下]2016.1080p.3D.BluRay.Half-OU.x264.DTS-HD.MA.HR.7.1-RARBG ... attachment 电影首发 2016-5-29 0793 电影首发 2016-5-29 10:45
[左右格式] [BT下载]怒海救援[3D左右]2016.1080p.3D.BluRay.Half-SBS.x264.DTS-HD.MA.HR.7.1-RARB ... attachment 电影首发 2016-5-29 0906 电影首发 2016-5-29 10:45
[上下格式] [BT下载]疯狂动物城[3D上下]2016.1080p.3D.BluRay.Half-OU.x264.DTS-HD.MA.7.1-RARBG ... attachment 电影首发 2016-5-29 0913 电影首发 2016-5-29 10:45
[左右格式] [BT下载]疯狂动物城[3D左右]2016.1080p.3D.BluRay.Half-SBS.x264.DTS-HD.MA.7.1-RARBG ... attachment 电影首发 2016-5-29 01385 电影首发 2016-5-29 10:45
[左右格式] [BT磁链][美人鱼].The.Mermaid.2016.1080p.Half-SBS.3D.BluRay.x264-WiKi[12.6G] ... ... attach_img 电影首发 2016-5-28 01211 电影首发 2016-5-28 08:50
[左右格式] [BT下载]死亡地堡/亡命地堡[3D左右]Bunker.of.the.Dead.2015.3D.1080p.BluRay.x264-VA ... attachment 电影首发 2016-5-28 0932 电影首发 2016-5-28 08:50
[左右格式] [BT下载]死亡地堡/亡命地堡[3D左右]Bunker.of.the.Dead.2015.3D.720p.BluRay.x264-VAL ... attachment 电影首发 2016-5-28 01041 电影首发 2016-5-28 08:50
[左右格式] [BT下载][神战:权力之眼][3D左右].2016.3D.BluRay.1080p.HSBS.x264.DTS.X.7.1-CMCT[1 ... attach_img 电影首发 2016-5-26 0870 电影首发 2016-5-26 09:47
[BT下载][神战:权力之眼][3D上下].2016.3D.BluRay.1080p.HOU.x264.DTS.X.7.1-CMCT[14 ... attach_img 电影首发 2016-5-26 0604 电影首发 2016-5-26 09:47
[BT下载]神战:权力之眼[3D上下]2016.1080p.3D.BluRay.Half-OU.x264.DTS-HD.MA.7.1-RAR ... attach_img 电影首发 2016-5-21 0709 电影首发 2016-5-21 10:36
[左右格式] [BT下载]神战:权力之眼[3D左右]2016.1080p.3D.BluRay.Half-SBS.x264.DTS-HD.MA.7.1-RA ... attach_img 电影首发 2016-5-21 0958 电影首发 2016-5-21 10:36
[左右格式] [BT下载]偷车贼[3D左右]Boost.2016.3D.1080p.BluRay.x264-VALUE 6.55GB attachment 电影首发 2016-5-15 01027 电影首发 2016-5-15 11:16
[左右格式] [BT下载]偷车贼[3D左右]Boost.3D.2016.720p.BluRay.x264-VALUE 4.37GB attachment 电影首发 2016-5-15 0686 电影首发 2016-5-15 11:16
[左右格式] 医院2[3D左右][BT下载]The.Hospital.2.3D.2015.1080p.BluRay.x264-UNVEiL 6.55GB ... ... attachment 电影首发 2016-5-8 01016 电影首发 2016-5-8 08:58
[左右格式] [BT下载]医院[3D左右]The.Hospital.3D.2013.1080p.BluRay.x264-UNVEiL 5.46GB attachment 电影首发 2016-5-8 0788 电影首发 2016-5-8 08:58
[左右格式] [BT下载]鬼哭神嚎的房子[3D左右]The.Amityville.Playhouse.2015.3D.720p.BluRay.x264- ... attachment 电影首发 2016-5-6 0661 电影首发 2016-5-6 09:17
[左右格式] [BT下载][九层妖塔(3D左右半宽)]2015.BluRay.1080p.HSBS.x264-CMCT[3D中文字幕/10.8G] ... attachment 电影首发 2016-5-3 0815 电影首发 2016-5-3 09:44
[上下格式] [BT下载][九层妖塔(3D版上下半高)]2015.BluRay.1080p.HOU.x264-CMCT[3D中文字幕/10.8G ... attachment 电影首发 2016-5-3 0569 电影首发 2016-5-3 09:44
[左右格式] 九层妖塔[BT下载][3D左右 中字]2015.1080p.3D.BluRay.Half-SBS.x264.DD5.1-WiKi 10GB ... attach_img 电影首发 2016-4-25 01122 电影首发 2016-4-25 09:19
[左右格式] [BT下载]西游记之三打白骨精[3D左右]2016.1080p.3D.BluRay.Half-SBS.x264.TrueHD.7.1. ... attach_img 电影首发 2016-4-16 01389 电影首发 2016-4-16 09:28
[上下格式] [BT下载]西游记之三打白骨精[3D上下]2016.1080p.3D.BluRay.Half-OU.x264.TrueHD.7.1.A ... attach_img 电影首发 2016-4-16 01074 电影首发 2016-4-16 09:28
[左右格式] [BT下载]地狱亡魂/被诅咒之物[3D左右]2014.3D.1080p.BluRay.x264-VALUE 6.55GB ... ... attach_img 电影首发 2016-4-15 0711 电影首发 2016-4-15 09:21
[左右格式] [BT下载]地狱亡魂/被诅咒之物[3D左右]2014.3D.720p.BluRay.x264-VALUE 4.37GB ... ... attach_img 电影首发 2016-4-15 0769 电影首发 2016-4-15 09:21
[左右格式] [BT下载]冬荫功2:拳霸天下[3D左右]2013.3D.1080p.BluRay.x264-SADPANDA 9.8GB ... ... attach_img 电影首发 2016-4-12 01070 电影首发 2016-4-12 08:41
[左右格式] [BT下载]我唾弃你的坟墓3:复仇在我[3D左右]3D.2015.1080p.BluRay.x264-UNVEiL 6.56GB ... attach_img 电影首发 2016-4-9 01179 电影首发 2016-4-9 08:25
[上下格式] [BT下载][极盗者].2015.3D.BluRay.1080p.HOU.x264.DTS-HD.MA7.1-CMCT[上下/中英字幕/1 ... attach_img 电影首发 2016-4-6 01194 电影首发 2016-4-6 08:16
[左右格式] [BT下载]三个火枪手[3D左右]2011.1080p.3D.BluRay.Half-SBS.x264.DTS-HD.MA.5.1-RARBG ... attach_img 电影首发 2016-3-28 0887 电影首发 2016-3-28 09:07
下一页 »

小黑屋|百度云资源论坛

本网站所有资源来自网络,如无意中侵犯了您的权益,请发邮件至 804136696@qq.com,立即清除相关链接

GMT+8, 2018-12-17 23:08 , Processed in 0.062578 second(s), 15 queries .

Powered by Discuz! X3.2

© 2001-2013 Comsenz Inc.

返回顶部 返回版块